createdAt,value
2019-04-05T00:01:14.531Z,8.00
2019-04-05T00:03:41.221Z,8.00
2019-04-05T00:06:08.132Z,8.10
2019-04-05T00:08:34.907Z,8.10
2019-04-05T00:11:02.106Z,8.00
2019-04-05T00:13:28.885Z,8.00
2019-04-05T00:15:55.684Z,8.00
2019-04-05T00:18:22.333Z,8.10
2019-04-05T00:20:49.090Z,8.20
2019-04-05T00:23:15.877Z,8.10
2019-04-05T00:25:42.583Z,8.30
2019-04-05T00:28:09.363Z,8.30
2019-04-05T00:30:36.137Z,8.40
2019-04-05T00:33:03.052Z,8.50
2019-04-05T00:35:29.798Z,8.40
2019-04-05T00:37:56.614Z,8.40
2019-04-05T00:40:23.480Z,8.50
2019-04-05T00:42:50.339Z,8.60
2019-04-05T00:45:27.493Z,8.50
2019-04-05T00:47:45.613Z,8.60
2019-04-05T00:50:12.549Z,8.60
2019-04-05T00:52:39.342Z,8.60
2019-04-05T00:55:06.276Z,8.60
2019-04-05T00:57:33.244Z,8.60
2019-04-05T00:59:59.917Z,8.60
2019-04-05T01:02:26.684Z,8.70
2019-04-05T01:04:53.439Z,8.70
2019-04-05T01:07:20.332Z,8.70
2019-04-05T01:09:47.184Z,8.80
2019-04-05T01:12:14.538Z,8.70
2019-04-05T01:14:41.770Z,8.80
2019-04-05T01:17:08.523Z,8.90
2019-04-05T01:19:38.915Z,8.90
2019-04-05T01:22:07.862Z,9.00
2019-04-05T01:24:35.040Z,9.10
2019-04-05T01:27:02.776Z,9.20
2019-04-05T01:29:29.758Z,9.20
2019-04-05T01:31:56.488Z,9.20
2019-04-05T01:34:23.174Z,9.20
2019-04-05T01:36:49.893Z,9.40
2019-04-05T01:39:16.644Z,9.60
2019-04-05T01:41:43.900Z,9.90
2019-04-05T01:44:10.577Z,10.00
2019-04-05T01:46:37.406Z,10.00
2019-04-05T01:49:04.245Z,10.40
2019-04-05T01:51:31.511Z,10.80
2019-04-05T01:53:58.280Z,10.70
2019-04-05T01:56:25.230Z,11.10
2019-04-05T01:58:52.112Z,11.20
2019-04-05T02:01:19.396Z,11.20
2019-04-05T02:03:46.165Z,11.20
2019-04-05T02:06:12.941Z,11.20
2019-04-05T02:08:39.884Z,11.30
2019-04-05T02:11:06.863Z,11.40
2019-04-05T02:13:33.549Z,11.20
2019-04-05T02:16:06.288Z,11.20
2019-04-05T02:18:28.852Z,11.10
2019-04-05T02:20:55.540Z,11.20
2019-04-05T02:23:22.274Z,11.30
2019-04-05T02:25:49.032Z,11.20
2019-04-05T02:28:15.736Z,11.30
2019-04-05T02:30:42.490Z,11.40
2019-04-05T02:33:09.296Z,11.50
2019-04-05T02:35:39.053Z,11.40
2019-04-05T02:38:05.080Z,11.50
2019-04-05T02:40:34.852Z,11.50
2019-04-05T02:43:03.248Z,11.20
2019-04-05T02:45:32.607Z,11.10
2019-04-05T02:50:31.665Z,11.10
2019-04-05T02:53:01.548Z,11.00
2019-04-05T02:55:29.023Z,10.90
2019-04-05T02:57:57.537Z,10.90
2019-04-05T03:00:25.500Z,10.90
2019-04-05T03:02:53.668Z,10.70
2019-04-05T03:05:21.466Z,10.80
2019-04-05T03:07:48.818Z,10.70
2019-04-05T03:10:51.486Z,10.80
2019-04-05T03:13:18.358Z,11.20
2019-04-05T03:15:45.233Z,11.40
2019-04-05T03:18:12.122Z,11.50
2019-04-05T03:20:39.100Z,11.60
2019-04-05T03:23:06.181Z,11.60
2019-04-05T03:25:33.376Z,11.70
2019-04-05T03:28:00.850Z,11.70
2019-04-05T03:30:27.978Z,11.70
2019-04-05T03:32:54.924Z,11.70
2019-04-05T03:35:22.083Z,11.80
2019-04-05T03:37:49.036Z,11.70
2019-04-05T03:40:15.998Z,11.70
2019-04-05T03:42:42.968Z,11.60
2019-04-05T03:45:10.009Z,11.50
2019-04-05T03:47:36.827Z,11.40
2019-04-05T03:50:05.536Z,11.40
2019-04-05T03:52:32.315Z,11.40
2019-04-05T03:54:59.207Z,11.30
2019-04-05T03:57:25.971Z,11.10
2019-04-05T03:59:52.729Z,11.10
2019-04-05T04:02:23.326Z,11.00
2019-04-05T04:04:48.315Z,11.00
2019-04-05T04:07:15.230Z,11.00
2019-04-05T04:09:42.139Z,11.00
2019-04-05T04:12:08.872Z,10.90
2019-04-05T04:14:36.042Z,10.90
2019-04-05T04:17:12.085Z,10.90
2019-04-05T04:19:32.380Z,11.00
2019-04-05T04:22:24.244Z,10.90
2019-04-05T04:24:51.530Z,10.90
2019-04-05T04:27:18.465Z,10.80
2019-04-05T04:29:45.233Z,10.70
2019-04-05T04:32:12.512Z,10.70
2019-04-05T04:34:39.298Z,10.70
2019-04-05T04:37:06.178Z,10.80
2019-04-05T04:39:33.081Z,10.70
2019-04-05T04:42:00.699Z,10.70
2019-04-05T04:44:27.904Z,10.60
2019-04-05T04:46:54.870Z,10.60
2019-04-05T04:49:21.912Z,10.60
2019-04-05T04:51:48.932Z,10.60
2019-04-05T04:54:16.474Z,10.50
2019-04-05T04:56:43.781Z,10.50
2019-04-05T04:59:10.893Z,10.50
2019-04-05T05:01:37.851Z,10.50
2019-04-05T05:04:04.803Z,10.60
2019-04-05T05:06:32.189Z,10.70
2019-04-05T05:08:59.378Z,10.80
2019-04-05T05:11:26.324Z,10.80
2019-04-05T05:13:53.524Z,10.90
2019-04-05T05:16:20.543Z,11.00
2019-04-05T05:18:47.500Z,11.10
2019-04-05T05:21:14.383Z,11.20
2019-04-05T05:23:41.902Z,11.30
2019-04-05T05:26:08.765Z,11.50
2019-04-05T05:28:35.980Z,11.50
2019-04-05T05:31:03.242Z,11.50
2019-04-05T05:33:30.444Z,11.60
2019-04-05T05:35:57.517Z,11.70
2019-04-05T05:38:24.325Z,11.60
2019-04-05T05:40:51.159Z,11.60
2019-04-05T05:43:18.652Z,11.60
2019-04-05T05:45:45.658Z,11.60
2019-04-05T05:48:12.952Z,11.50
2019-04-05T05:50:40.254Z,11.40
2019-04-05T05:53:07.230Z,11.40
2019-04-05T05:55:34.158Z,11.40
2019-04-05T05:58:01.035Z,11.30
2019-04-05T06:00:30.168Z,11.30
2019-04-05T06:02:56.617Z,11.20
2019-04-05T06:05:23.511Z,11.30
2019-04-05T06:07:50.552Z,11.30
2019-04-05T06:10:17.523Z,11.40
2019-04-05T06:12:45.557Z,11.40
2019-04-05T06:15:12.756Z,11.40
2019-04-05T06:17:39.494Z,11.40
2019-04-05T06:20:07.293Z,11.40
2019-04-05T06:22:34.104Z,11.40
2019-04-05T06:25:00.867Z,11.30
2019-04-05T06:27:27.795Z,11.40
2019-04-05T06:29:54.622Z,11.40
2019-04-05T06:32:21.622Z,11.40
2019-04-05T06:34:48.609Z,11.40
2019-04-05T06:37:16.642Z,11.40
2019-04-05T06:39:43.386Z,11.40
2019-04-05T06:42:10.221Z,11.40
2019-04-05T06:44:38.059Z,11.40
2019-04-05T06:47:05.134Z,11.50
2019-04-05T06:49:31.980Z,11.40
2019-04-05T06:51:58.918Z,11.40
2019-04-05T06:54:25.581Z,11.50
2019-04-05T06:56:52.393Z,11.40
2019-04-05T06:59:19.475Z,11.40
2019-04-05T07:01:46.387Z,11.40
2019-04-05T07:04:13.389Z,11.40
2019-04-05T07:06:40.383Z,11.40
2019-04-05T07:09:07.356Z,11.40
2019-04-05T07:11:34.172Z,11.40
2019-04-05T07:14:00.973Z,11.40
2019-04-05T07:16:27.747Z,11.50
2019-04-05T07:18:54.704Z,11.40
2019-04-05T07:21:21.686Z,11.50
2019-04-05T07:23:48.578Z,11.50
2019-04-05T07:26:15.461Z,11.40
2019-04-05T07:28:42.672Z,11.40
2019-04-05T07:31:09.573Z,11.30
2019-04-05T07:33:36.626Z,11.10
2019-04-05T07:36:03.841Z,11.00
2019-04-05T07:38:31.628Z,11.00
2019-04-05T07:40:58.450Z,11.00
2019-04-05T07:43:25.370Z,10.90
2019-04-05T07:45:52.233Z,10.80
2019-04-05T07:48:19.021Z,10.80
2019-04-05T07:50:45.915Z,10.80
2019-04-05T07:53:12.976Z,10.80
2019-04-05T07:55:39.847Z,10.70
2019-04-05T07:58:06.724Z,10.70
2019-04-05T08:00:42.933Z,10.70
2019-04-05T08:03:10.607Z,10.70
2019-04-05T08:05:37.533Z,10.70
2019-04-05T08:08:07.896Z,10.70
2019-04-05T08:10:34.856Z,10.70
2019-04-05T08:13:02.874Z,10.70
2019-04-05T08:15:30.513Z,10.70
2019-04-05T08:17:57.399Z,10.80
2019-04-05T08:20:25.327Z,10.80
2019-04-05T08:22:52.522Z,10.70
2019-04-05T08:25:19.394Z,10.70
2019-04-05T08:27:46.223Z,10.90
2019-04-05T08:30:13.106Z,10.90
2019-04-05T08:32:40.099Z,11.00
2019-04-05T08:35:07.006Z,11.10
2019-04-05T08:37:33.864Z,11.30
2019-04-05T08:40:00.661Z,11.40
2019-04-05T08:42:27.536Z,11.40
2019-04-05T08:44:54.435Z,11.40
2019-04-05T08:47:22.593Z,11.40
2019-04-05T08:49:49.490Z,11.50
2019-04-05T08:52:16.315Z,11.60
2019-04-05T08:54:43.420Z,11.70
2019-04-05T08:57:10.305Z,11.80
2019-04-05T08:59:36.991Z,11.70
2019-04-05T09:02:05.063Z,11.70
2019-04-05T09:04:32.933Z,11.60
2019-04-05T09:07:01.403Z,11.70
2019-04-05T09:09:28.211Z,11.50
2019-04-05T09:11:55.067Z,11.40
2019-04-05T09:14:21.895Z,11.20
2019-04-05T09:16:48.643Z,11.20
2019-04-05T09:19:23.364Z,11.20
2019-04-05T09:21:44.302Z,11.20
2019-04-05T09:24:11.140Z,11.30
2019-04-05T09:26:38.064Z,11.30
2019-04-05T09:29:05.039Z,11.30
2019-04-05T09:31:31.753Z,11.30
2019-04-05T09:33:58.619Z,11.30
2019-04-05T09:36:25.588Z,11.40
2019-04-05T09:38:52.497Z,11.30
2019-04-05T09:41:19.374Z,11.30
2019-04-05T09:43:46.248Z,11.30
2019-04-05T09:46:13.166Z,11.20
2019-04-05T09:48:40.052Z,11.20
2019-04-05T09:51:07.303Z,11.20
2019-04-05T09:53:34.396Z,11.20
2019-04-05T09:56:01.494Z,11.20
2019-04-05T09:58:28.773Z,11.20
2019-04-05T10:00:55.683Z,11.30
2019-04-05T10:03:22.557Z,11.20
2019-04-05T10:05:49.440Z,11.30
2019-04-05T10:08:16.413Z,11.30
2019-04-05T10:10:43.296Z,11.30
2019-04-05T10:13:10.424Z,11.30
2019-04-05T10:15:37.470Z,11.30
2019-04-05T10:18:04.454Z,11.30
2019-04-05T10:20:31.357Z,11.30
2019-04-05T10:23:00.017Z,11.30
2019-04-05T10:25:26.908Z,11.30
2019-04-05T10:27:53.995Z,11.40
2019-04-05T10:30:20.981Z,11.30
2019-04-05T10:32:47.841Z,11.30
2019-04-05T10:35:14.835Z,11.20
2019-04-05T10:37:41.688Z,11.30
2019-04-05T10:40:08.879Z,11.20
2019-04-05T10:42:36.427Z,11.20
2019-04-05T10:45:06.838Z,11.20
2019-04-05T10:47:33.619Z,11.20
2019-04-05T10:50:03.362Z,11.20
2019-04-05T10:52:29.218Z,11.10
2019-04-05T10:54:57.985Z,11.00
2019-04-05T10:57:24.953Z,11.10
2019-04-05T10:59:51.898Z,11.00
2019-04-05T11:02:18.950Z,11.00
2019-04-05T11:04:45.936Z,10.80
2019-04-05T11:07:12.917Z,10.80
2019-04-05T11:09:39.738Z,10.70
2019-04-05T11:12:08.661Z,10.70
2019-04-05T11:14:35.254Z,10.70
2019-04-05T11:17:04.479Z,10.70
2019-04-05T11:19:32.667Z,10.50
2019-04-05T11:21:59.555Z,10.40
2019-04-05T11:24:26.337Z,10.30
2019-04-05T11:26:53.214Z,10.40
2019-04-05T11:29:20.037Z,10.40
2019-04-05T11:31:56.788Z,10.40
2019-04-05T11:34:15.871Z,10.40
2019-04-05T11:36:43.998Z,10.40
2019-04-05T11:39:10.750Z,10.40
2019-04-05T11:41:39.631Z,10.40
2019-04-05T11:44:06.493Z,10.40
2019-04-05T11:46:36.306Z,10.40
2019-04-05T11:49:04.498Z,10.40
2019-04-05T11:51:31.609Z,10.50
2019-04-05T11:53:58.671Z,10.50
2019-04-05T11:56:25.578Z,10.30
2019-04-05T11:58:52.571Z,10.20
2019-04-05T12:01:23.834Z,10.20
2019-04-05T12:03:50.709Z,10.10
2019-04-05T12:06:18.745Z,10.20
2019-04-05T12:08:45.663Z,10.30
2019-04-05T12:11:13.658Z,10.40
2019-04-05T12:13:40.879Z,10.40
2019-04-05T12:16:10.344Z,10.50
2019-04-05T12:18:36.610Z,10.60
2019-04-05T12:21:05.692Z,10.40
2019-04-05T12:23:33.357Z,10.40
2019-04-05T12:26:03.910Z,10.50
2019-04-05T12:28:29.222Z,10.60
2019-04-05T12:30:56.114Z,10.60
2019-04-05T12:33:23.012Z,10.60
2019-04-05T12:35:52.995Z,10.70
2019-04-05T12:38:31.560Z,10.60
2019-04-05T12:41:03.018Z,10.60
2019-04-05T12:43:30.426Z,10.50
2019-04-05T12:45:57.290Z,10.50
2019-04-05T12:48:24.117Z,10.40
2019-04-05T12:51:00.614Z,10.40
2019-04-05T12:53:20.110Z,10.40
2019-04-05T12:55:46.944Z,10.50
2019-04-05T12:58:13.724Z,10.60
2019-04-05T13:00:40.513Z,10.40
2019-04-05T13:03:07.413Z,10.40
2019-04-05T13:05:34.273Z,10.30
2019-04-05T13:08:01.046Z,10.40
2019-04-05T13:10:30.300Z,10.30
2019-04-05T13:12:57.710Z,10.40
2019-04-05T13:15:25.099Z,10.50
2019-04-05T13:17:52.043Z,10.50
2019-04-05T13:20:19.190Z,10.50
2019-04-05T13:22:46.067Z,10.40
2019-04-05T13:25:13.174Z,10.30
2019-04-05T13:27:41.522Z,10.20
2019-04-05T13:30:09.025Z,10.20
2019-04-05T13:32:36.209Z,10.20
2019-04-05T13:35:05.187Z,10.30
2019-04-05T13:37:32.076Z,10.30
2019-04-05T13:40:00.058Z,10.40
2019-04-05T13:42:27.336Z,10.50
2019-04-05T13:44:54.274Z,10.40
2019-04-05T13:47:22.871Z,10.60
2019-04-05T13:49:49.585Z,10.70
2019-04-05T13:52:16.496Z,10.70
2019-04-05T13:54:43.563Z,10.70
2019-04-05T13:57:11.382Z,10.70
2019-04-05T13:59:38.421Z,10.50
2019-04-05T14:02:06.574Z,10.50
2019-04-05T14:04:33.752Z,10.40
2019-04-05T14:07:00.528Z,10.40
2019-04-05T14:09:27.311Z,10.50
2019-04-05T14:11:54.313Z,10.50
2019-04-05T14:14:21.302Z,10.40
2019-04-05T14:16:48.212Z,10.50
2019-04-05T14:19:18.303Z,10.40
2019-04-05T14:21:47.671Z,10.40
2019-04-05T14:24:12.486Z,10.40
2019-04-05T14:26:43.377Z,10.30
2019-04-05T14:29:08.035Z,10.30
2019-04-05T14:31:35.015Z,10.20
2019-04-05T14:34:01.934Z,10.20
2019-04-05T14:36:29.146Z,10.10
2019-04-05T14:38:56.025Z,10.00
2019-04-05T14:41:22.817Z,10.10
2019-04-05T14:43:49.883Z,10.00
2019-04-05T14:46:16.977Z,10.10
2019-04-05T14:48:43.912Z,10.00
2019-04-05T14:51:10.715Z,9.90
2019-04-05T14:53:37.886Z,9.90
2019-04-05T14:56:04.869Z,9.90
2019-04-05T14:58:31.741Z,9.90
2019-04-05T15:00:58.540Z,9.90
2019-04-05T15:03:25.508Z,9.90
2019-04-05T15:05:52.408Z,10.00
2019-04-05T15:08:20.701Z,10.20
2019-04-05T15:10:47.921Z,10.10
2019-04-05T15:13:14.885Z,10.10
2019-04-05T15:15:41.887Z,10.20
2019-04-05T15:18:08.889Z,10.20
2019-04-05T15:20:35.680Z,10.30
2019-04-05T15:23:02.558Z,10.20
2019-04-05T15:25:29.719Z,10.20
2019-04-05T15:27:56.432Z,10.30
2019-04-05T15:30:25.697Z,10.20
2019-04-05T15:32:52.055Z,10.30
2019-04-05T15:35:18.886Z,10.30
2019-04-05T15:37:45.684Z,10.30
2019-04-05T15:40:12.995Z,10.30
2019-04-05T15:42:40.020Z,10.30
2019-04-05T15:45:08.206Z,10.30
2019-04-05T15:47:35.375Z,10.30
2019-04-05T15:50:03.524Z,10.30
2019-04-05T15:52:32.060Z,10.20
2019-04-05T15:54:58.994Z,10.20
2019-04-05T15:57:25.855Z,10.30
2019-04-05T15:59:52.691Z,10.30
2019-04-05T16:02:19.676Z,10.40
2019-04-05T16:04:46.442Z,10.40
2019-04-05T16:07:13.325Z,10.40
2019-04-05T16:09:40.438Z,10.40
2019-04-05T16:12:07.323Z,10.40
2019-04-05T16:14:34.516Z,10.40
2019-04-05T16:17:01.279Z,10.30
2019-04-05T16:19:28.309Z,10.20
2019-04-05T16:21:55.334Z,10.00
2019-04-05T16:24:22.149Z,10.00
2019-04-05T16:26:49.099Z,9.90
2019-04-05T16:29:16.003Z,9.90
2019-04-05T16:31:43.008Z,9.90
2019-04-05T16:34:10.158Z,9.90
2019-04-05T16:36:37.033Z,9.90
2019-04-05T16:39:07.844Z,9.90
2019-04-05T16:41:36.041Z,9.90
2019-04-05T16:44:03.020Z,10.00
2019-04-05T16:46:30.105Z,10.00
2019-04-05T16:48:57.085Z,9.90
2019-04-05T16:51:23.955Z,9.90
2019-04-05T16:54:01.523Z,9.80
2019-04-05T16:56:29.352Z,9.80
2019-04-05T16:58:56.709Z,9.70
2019-04-05T17:01:27.461Z,9.70
2019-04-05T17:03:52.462Z,9.70
2019-04-05T17:06:19.472Z,9.70
2019-04-05T17:08:46.753Z,9.70
2019-04-05T17:11:14.011Z,9.70
2019-04-05T17:13:40.742Z,9.70
2019-04-05T17:16:07.877Z,9.70
2019-04-05T17:18:34.851Z,9.60
2019-04-05T17:21:02.088Z,9.60
2019-04-05T17:23:29.416Z,9.50
2019-04-05T17:25:56.591Z,9.50
2019-04-05T17:28:23.722Z,9.50
2019-04-05T17:30:50.747Z,9.50
2019-04-05T17:33:18.645Z,9.40
2019-04-05T17:35:45.750Z,9.40
2019-04-05T17:38:12.845Z,9.40
2019-04-05T17:40:39.989Z,9.40
2019-04-05T17:43:06.776Z,9.30
2019-04-05T17:45:33.856Z,9.30
2019-04-05T17:48:00.728Z,9.30
2019-04-05T17:50:29.883Z,9.30
2019-04-05T17:52:56.783Z,9.20
2019-04-05T17:55:23.681Z,9.20
2019-04-05T17:57:50.550Z,9.20
2019-04-05T18:00:19.507Z,9.20
2019-04-05T18:02:46.489Z,9.20
2019-04-05T18:05:13.382Z,9.10
2019-04-05T18:07:40.293Z,9.10
2019-04-05T18:10:07.482Z,9.20
2019-04-05T18:12:34.632Z,9.20
2019-04-05T18:15:01.526Z,9.20
2019-04-05T18:17:29.531Z,9.20
2019-04-05T18:19:56.298Z,9.20
2019-04-05T18:22:23.071Z,9.20
2019-04-05T18:24:49.863Z,9.20
2019-04-05T18:27:16.774Z,9.20
2019-04-05T18:29:43.768Z,9.30
2019-04-05T18:32:10.692Z,9.20
2019-04-05T18:34:37.571Z,9.20
2019-04-05T18:37:04.542Z,9.20
2019-04-05T18:39:31.448Z,9.20
2019-04-05T18:41:58.320Z,9.20
2019-04-05T18:44:25.335Z,9.20
2019-04-05T18:46:52.237Z,9.10
2019-04-05T18:49:19.250Z,9.10
2019-04-05T18:51:46.264Z,9.10
2019-04-05T18:54:13.270Z,9.10
2019-04-05T18:56:40.613Z,9.10
2019-04-05T18:59:07.602Z,9.20
2019-04-05T19:01:34.967Z,9.20
2019-04-05T19:04:01.926Z,9.20
2019-04-05T19:06:28.804Z,9.20
2019-04-05T19:08:56.175Z,9.20
2019-04-05T19:11:23.038Z,9.20
2019-04-05T19:14:00.593Z,9.20
2019-04-05T19:16:18.521Z,9.20
2019-04-05T19:18:45.333Z,9.10
2019-04-05T19:21:12.337Z,9.10
2019-04-05T19:23:50.334Z,9.10
2019-04-05T19:26:07.789Z,9.10
2019-04-05T19:28:34.585Z,9.00
2019-04-05T19:50:51.036Z,9.00
2019-04-05T19:53:17.858Z,9.00
2019-04-05T19:55:44.941Z,9.10
2019-04-05T19:58:12.089Z,9.00
2019-04-05T20:00:39.011Z,8.90
2019-04-05T20:03:05.787Z,8.90
2019-04-05T20:05:32.586Z,8.80
2019-04-05T20:07:59.371Z,8.80
2019-04-05T20:10:26.270Z,8.90
2019-04-05T20:12:53.113Z,8.80
2019-04-05T20:15:19.973Z,8.80
2019-04-05T20:17:46.914Z,8.90
2019-04-05T20:20:13.856Z,8.80
2019-04-05T20:22:40.777Z,8.80
2019-04-05T20:25:07.806Z,8.70
2019-04-05T20:27:35.736Z,8.70
2019-04-05T20:30:07.649Z,8.70
2019-04-05T20:32:34.196Z,8.70
2019-04-05T20:35:00.978Z,8.70
2019-04-05T20:37:27.950Z,8.70
2019-04-05T20:39:54.917Z,8.70
2019-04-05T20:42:21.711Z,8.70
2019-04-05T20:44:48.563Z,8.60
2019-04-05T20:47:15.351Z,8.60
2019-04-05T20:49:42.271Z,8.70
2019-04-05T20:52:09.078Z,8.60
2019-04-05T20:54:35.951Z,8.60
2019-04-05T20:57:02.927Z,8.50
2019-04-05T20:59:30.281Z,8.60
2019-04-05T21:01:57.048Z,8.60
2019-04-05T21:04:23.951Z,8.50
2019-04-05T21:06:50.779Z,8.50
2019-04-05T21:09:17.572Z,8.50
2019-04-05T21:11:44.347Z,8.50
2019-04-05T21:14:11.289Z,8.50
2019-04-05T21:16:38.188Z,8.50
2019-04-05T21:19:05.170Z,8.40
2019-04-05T21:21:32.185Z,8.50
2019-04-05T21:24:00.297Z,8.50
2019-04-05T21:26:27.064Z,8.50
2019-04-05T21:28:53.867Z,8.40
2019-04-05T21:31:20.631Z,8.40
2019-04-05T21:33:47.400Z,8.20
2019-04-05T21:36:14.440Z,8.20
2019-04-05T21:38:41.234Z,8.30
2019-04-05T21:41:08.128Z,8.20
2019-04-05T21:43:35.344Z,8.20
2019-04-05T21:46:03.123Z,8.20
2019-04-05T21:48:30.707Z,8.20
2019-04-05T21:50:57.713Z,8.20
2019-04-05T21:53:25.598Z,8.20
2019-04-05T21:55:52.433Z,8.10
2019-04-05T21:58:19.173Z,8.10
2019-04-05T22:00:50.828Z,8.10
2019-04-05T22:03:18.160Z,8.10
2019-04-05T22:05:45.000Z,8.10
2019-04-05T22:08:11.792Z,8.10
2019-04-05T22:10:38.701Z,8.20
2019-04-05T22:13:05.751Z,8.20
2019-04-05T22:15:32.474Z,8.20
2019-04-05T22:17:59.266Z,8.20
2019-04-05T22:20:26.161Z,8.20
2019-04-05T22:22:52.939Z,8.20
2019-04-05T22:25:19.966Z,8.20
2019-04-05T22:27:46.828Z,8.20
2019-04-05T22:30:13.977Z,8.20
2019-04-05T22:32:40.754Z,8.20
2019-04-05T22:35:07.620Z,8.20
2019-04-05T22:37:34.417Z,8.20
2019-04-05T22:40:01.235Z,8.20
2019-04-05T22:42:29.134Z,8.20
2019-04-05T22:44:56.065Z,8.20
2019-04-05T22:47:22.885Z,8.20
2019-04-05T22:49:49.803Z,8.20
2019-04-05T22:52:16.694Z,8.20
2019-04-05T22:54:43.524Z,8.20
2019-04-05T22:57:10.839Z,8.20
2019-04-05T22:59:37.699Z,8.10
2019-04-05T23:02:04.675Z,8.20
2019-04-05T23:04:31.438Z,8.20
2019-04-05T23:06:58.423Z,8.10
2019-04-05T23:09:25.312Z,8.20
2019-04-05T23:11:52.268Z,8.20
2019-04-05T23:14:19.080Z,8.10
2019-04-05T23:16:45.983Z,8.10
2019-04-05T23:19:12.719Z,8.10
2019-04-05T23:21:39.610Z,8.10
2019-04-05T23:24:07.522Z,8.00
2019-04-05T23:26:37.156Z,8.10
2019-04-05T23:29:03.848Z,8.10
2019-04-05T23:31:30.859Z,8.00
2019-04-05T23:33:57.816Z,8.00
2019-04-05T23:36:24.808Z,8.10
2019-04-05T23:38:51.496Z,8.00
2019-04-05T23:41:19.051Z,8.00
2019-04-05T23:43:45.924Z,8.00
2019-04-05T23:46:12.786Z,8.00
2019-04-05T23:48:39.654Z,8.00
2019-04-05T23:51:06.476Z,8.00
2019-04-05T23:53:33.301Z,8.00
2019-04-05T23:56:00.146Z,7.90
2019-04-05T23:58:27.015Z,7.90
